Time;durP1;ratioP1;P1;durP2;ratioP2;P2;SDS_P1;SDS_P2;PMS_P1;PMS_P2;Temp;Humidity;BMP_temperature;BMP_pressure;BME280_temperature;BME280_humidity;BME280_pressure;Samples;Min_cycle;Max_cycle;Signal;HPM_P1;HPM_P2
2023/06/26 00:01:50;;;;;;;7.15;5.75;;;21.60;99.90;;;;;;5127834;27;20215;-61
2023/06/26 00:04:17;;;;;;;9.90;6.30;;;21.60;99.90;;;;;;5115786;27;20203;-62
2023/06/26 00:06:45;;;;;;;9.75;6.43;;;21.50;99.90;;;;;;5126587;27;20619;-62
2023/06/26 00:09:13;;;;;;;7.25;5.82;;;21.50;99.90;;;;;;5122250;27;20194;-61
2023/06/26 00:11:42;;;;;;;6.82;5.78;;;21.50;99.90;;;;;;5118853;27;20251;-61
2023/06/26 00:14:10;;;;;;;8.88;6.75;;;21.50;99.90;;;;;;5129013;27;20209;-64
2023/06/26 00:16:38;;;;;;;9.90;6.00;;;21.40;99.90;;;;;;5117275;27;20285;-64
2023/06/26 00:19:06;;;;;;;7.55;6.75;;;21.30;99.90;;;;;;5123919;27;20248;-63
2023/06/26 00:21:34;;;;;;;7.55;6.05;;;21.30;99.90;;;;;;5124531;27;20639;-64
2023/06/26 00:24:02;;;;;;;7.95;6.55;;;21.30;99.90;;;;;;5115771;28;20557;-64
2023/06/26 00:26:30;;;;;;;7.43;6.82;;;21.20;99.90;;;;;;5111772;28;20231;-63
2023/06/26 00:28:59;;;;;;;6.82;6.03;;;21.20;99.90;;;;;;5119868;27;20195;-65
2023/06/26 00:31:27;;;;;;;7.60;6.93;;;21.20;99.90;;;;;;5120404;27;20670;-63
2023/06/26 00:33:55;;;;;;;7.03;6.43;;;21.20;99.90;;;;;;5127844;27;20620;-63
2023/06/26 00:36:23;;;;;;;7.45;6.85;;;21.10;99.90;;;;;;5115347;28;20670;-64
2023/06/26 00:38:51;;;;;;;7.30;6.65;;;21.10;99.90;;;;;;5125570;28;20203;-64
2023/06/26 00:41:19;;;;;;;6.97;6.32;;;21.00;99.90;;;;;;5122674;28;20226;-64
2023/06/26 00:43:47;;;;;;;6.60;6.10;;;21.00;99.90;;;;;;5118005;28;20649;-64
2023/06/26 00:46:16;;;;;;;7.00;6.07;;;20.90;99.90;;;;;;5128671;28;20289;-64
2023/06/26 00:48:45;;;;;;;7.60;6.90;;;20.90;99.90;;;;;;5117974;28;20290;-64
2023/06/26 00:51:13;;;;;;;7.28;6.68;;;20.80;99.90;;;;;;5125797;28;20731;-64
2023/06/26 00:53:41;;;;;;;9.23;6.75;;;20.80;99.90;;;;;;5125778;28;20306;-65
2023/06/26 00:56:09;;;;;;;8.10;6.72;;;20.70;99.90;;;;;;5125196;28;20729;-63
2023/06/26 00:58:36;;;;;;;7.65;6.85;;;20.70;99.90;;;;;;5116527;28;20298;-63
2023/06/26 01:01:06;;;;;;;9.82;7.25;;;20.60;99.90;;;;;;5128076;28;20575;-63
2023/06/26 01:03:37;;;;;;;7.72;6.70;;;20.50;99.90;;;;;;5119364;28;20252;-63
2023/06/26 01:06:05;;;;;;;7.90;7.05;;;20.50;99.90;;;;;;5128266;28;20689;-64
2023/06/26 01:08:33;;;;;;;7.75;7.05;;;20.50;99.90;;;;;;5115938;28;20610;-63
2023/06/26 01:11:00;;;;;;;9.05;6.88;;;20.40;99.90;;;;;;5123827;28;20692;-63
2023/06/26 01:13:29;;;;;;;7.20;6.50;;;20.40;99.90;;;;;;5105285;22;20319;-76
2023/06/26 01:15:57;;;;;;;7.57;6.85;;;20.40;99.90;;;;;;5103332;28;20334;-76
2023/06/26 01:18:25;;;;;;;7.88;7.22;;;20.30;99.90;;;;;;5092800;28;20271;-76
2023/06/26 01:20:58;;;;;;;7.50;6.85;;;20.30;99.90;;;;;;5101934;28;20200;-76
2023/06/26 01:23:30;;;;;;;7.80;6.93;;;20.30;99.90;;;;;;5100537;28;20291;-76
2023/06/26 01:26:11;;;;;;;8.90;6.57;;;20.30;99.90;;;;;;5091942;28;20277;-76
2023/06/26 01:28:39;;;;;;;7.75;6.90;;;20.20;99.90;;;;;;5088855;28;20203;-76
2023/06/26 01:31:08;;;;;;;8.77;6.82;;;20.20;99.90;;;;;;5088516;28;20307;-75
2023/06/26 01:33:36;;;;;;;10.68;7.22;;;20.20;99.90;;;;;;5106040;28;20282;-76
2023/06/26 01:36:04;;;;;;;8.30;7.47;;;20.10;99.90;;;;;;5095546;28;20220;-76
2023/06/26 01:38:32;;;;;;;8.27;7.50;;;20.10;99.90;;;;;;5105945;28;20262;-76
2023/06/26 01:41:00;;;;;;;8.00;7.20;;;20.00;99.90;;;;;;5092278;28;20188;-76
2023/06/26 01:43:32;;;;;;;8.48;7.68;;;19.90;99.90;;;;;;5104022;28;20618;-76
2023/06/26 01:46:02;;;;;;;7.35;6.75;;;19.90;99.90;;;;;;5094561;28;20987;-76
2023/06/26 01:48:33;;;;;;;8.07;7.38;;;19.80;99.90;;;;;;5096272;27;20313;-76
2023/06/26 01:51:01;;;;;;;10.48;7.90;;;19.80;99.90;;;;;;5095337;28;20802;-76
2023/06/26 01:53:33;;;;;;;8.45;7.43;;;19.70;99.90;;;;;;5099973;28;20195;-76
2023/06/26 01:56:07;;;;;;;9.10;8.15;;;19.70;99.90;;;;;;5091698;28;20304;-76
2023/06/26 01:58:37;;;;;;;8.18;7.32;;;19.70;99.90;;;;;;5096583;28;20198;-76
2023/06/26 02:01:04;;;;;;;8.13;7.30;;;19.70;99.90;;;;;;5096891;28;20283;-76
2023/06/26 02:03:33;;;;;;;10.23;7.10;;;19.70;99.90;;;;;;5107297;28;20207;-76
2023/06/26 02:06:01;;;;;;;8.35;7.05;;;19.70;99.90;;;;;;5097946;28;20224;-76
2023/06/26 02:08:29;;;;;;;8.77;7.28;;;19.70;99.90;;;;;;5094456;28;20228;-76
2023/06/26 02:10:57;;;;;;;8.05;7.25;;;19.60;99.90;;;;;;5094465;28;20223;-76
2023/06/26 02:13:25;;;;;;;8.43;7.35;;;19.60;99.90;;;;;;5105763;28;20306;-76
2023/06/26 02:15:54;;;;;;;8.15;7.22;;;19.50;99.90;;;;;;5098604;28;20224;-76
2023/06/26 02:18:22;;;;;;;9.45;7.78;;;19.40;99.90;;;;;;5111056;28;20317;-76
2023/06/26 02:20:50;;;;;;;8.50;7.70;;;19.40;99.90;;;;;;5100863;28;20686;-76
2023/06/26 02:23:18;;;;;;;9.25;7.50;;;19.40;99.90;;;;;;5111709;28;20227;-75
2023/06/26 02:25:46;;;;;;;10.68;7.78;;;19.40;99.90;;;;;;5099569;28;20223;-75
2023/06/26 02:28:13;;;;;;;9.05;8.00;;;19.30;99.90;;;;;;5110952;28;20344;-75
2023/06/26 02:30:41;;;;;;;8.43;7.63;;;19.30;99.90;;;;;;5100126;28;20203;-76
2023/06/26 02:33:11;;;;;;;12.10;7.07;;;19.30;99.90;;;;;;5105398;28;20275;-76
2023/06/26 02:35:39;;;;;;;8.68;7.43;;;19.30;99.90;;;;;;5106535;28;20340;-76
2023/06/26 02:38:07;;;;;;;8.73;7.30;;;19.30;99.90;;;;;;5097847;28;20204;-76
2023/06/26 02:40:34;;;;;;;7.68;7.00;;;19.30;99.90;;;;;;5108288;28;20227;-75
2023/06/26 02:43:03;;;;;;;8.63;7.53;;;19.30;99.90;;;;;;5101890;28;20210;-76
2023/06/26 02:45:31;;;;;;;10.65;8.20;;;19.30;99.90;;;;;;5102078;28;20237;-76
2023/06/26 02:47:58;;;;;;;8.73;7.88;;;19.20;99.90;;;;;;5102239;28;20638;-76
2023/06/26 02:50:28;;;;;;;8.52;7.65;;;19.20;99.90;;;;;;5110733;28;20200;-76
2023/06/26 02:52:56;;;;;;;7.80;7.13;;;19.20;99.90;;;;;;5101409;28;20708;-76
2023/06/26 02:55:24;;;;;;;8.77;7.47;;;19.10;99.90;;;;;;5112311;28;20298;-76
2023/06/26 02:57:52;;;;;;;8.02;7.28;;;19.10;99.90;;;;;;5098721;28;20245;-76
2023/06/26 03:00:20;;;;;;;9.07;7.97;;;19.00;99.90;;;;;;5110547;28;20256;-76
2023/06/26 03:02:48;;;;;;;9.10;8.15;;;18.90;99.90;;;;;;5095866;28;20196;-76
2023/06/26 03:05:16;;;;;;;7.60;6.90;;;18.90;99.90;;;;;;5100457;28;20195;-76
2023/06/26 03:07:45;;;;;;;7.78;7.18;;;18.90;99.90;;;;;;5097270;28;20192;-76
2023/06/26 03:10:13;;;;;;;7.95;7.15;;;18.90;99.90;;;;;;5106335;28;20732;-76
2023/06/26 03:12:41;;;;;;;12.52;7.00;;;18.90;99.90;;;;;;5095282;28;20273;-76
2023/06/26 03:15:11;;;;;;;10.10;7.88;;;18.90;99.90;;;;;;5100198;28;20564;-75
2023/06/26 03:17:39;;;;;;;8.65;7.75;;;18.90;99.90;;;;;;5103457;28;20227;-75
2023/06/26 03:20:09;;;;;;;8.75;7.85;;;18.90;99.90;;;;;;5094010;28;20204;-76
2023/06/26 03:22:37;;;;;;;8.73;7.80;;;18.80;99.90;;;;;;5105737;28;20706;-76
2023/06/26 03:25:07;;;;;;;9.07;7.82;;;18.80;99.90;;;;;;5098087;28;20184;-76
2023/06/26 03:27:35;;;;;;;10.45;7.85;;;18.70;99.90;;;;;;5096819;28;20227;-76
2023/06/26 03:30:04;;;;;;;8.73;7.43;;;18.70;99.90;;;;;;5106510;28;20199;-76
2023/06/26 03:32:31;;;;;;;9.27;7.28;;;18.70;99.90;;;;;;5094214;28;20715;-75
2023/06/26 03:35:00;;;;;;;10.90;8.60;;;18.70;99.90;;;;;;5101538;28;20207;-76
2023/06/26 03:37:29;;;;;;;9.00;8.10;;;18.70;99.90;;;;;;5102363;28;20223;-76
2023/06/26 03:39:57;;;;;;;8.75;7.85;;;18.70;99.90;;;;;;5094075;28;20711;-76
2023/06/26 03:42:26;;;;;;;10.38;7.82;;;18.60;99.90;;;;;;5106609;28;20283;-76
2023/06/26 03:44:54;;;;;;;8.20;7.45;;;18.60;99.90;;;;;;5096152;28;20203;-76
2023/06/26 03:47:22;;;;;;;8.77;7.88;;;18.60;99.90;;;;;;5098756;28;20277;-76
2023/06/26 03:49:50;;;;;;;8.45;7.63;;;18.60;99.90;;;;;;5104607;28;20214;-76
2023/06/26 03:52:17;;;;;;;11.27;7.82;;;18.60;99.90;;;;;;5093158;28;20220;-76
2023/06/26 03:54:45;;;;;;;11.10;7.72;;;18.60;99.90;;;;;;5107245;28;20203;-76
2023/06/26 03:57:13;;;;;;;8.52;7.72;;;18.60;99.90;;;;;;5099547;28;20750;-76
2023/06/26 03:59:42;;;;;;;12.45;9.23;;;18.60;99.90;;;;;;5089263;28;20247;-76
2023/06/26 04:02:12;;;;;;;10.82;7.57;;;18.60;99.90;;;;;;5106646;28;20195;-75
2023/06/26 04:04:40;;;;;;;9.30;7.43;;;18.60;99.90;;;;;;5093849;28;20477;-76
2023/06/26 04:07:09;;;;;;;8.65;7.38;;;18.60;99.90;;;;;;5100799;28;20303;-76
2023/06/26 04:09:37;;;;;;;8.90;8.07;;;18.50;99.90;;;;;;5102811;28;20210;-75
2023/06/26 04:12:05;;;;;;;8.52;7.72;;;18.50;99.90;;;;;;5093236;28;20315;-76
2023/06/26 04:14:33;;;;;;;8.60;7.80;;;18.60;99.90;;;;;;5104673;28;20676;-75
2023/06/26 04:17:03;;;;;;;9.32;8.52;;;18.60;99.90;;;;;;5097289;28;20268;-76
2023/06/26 04:19:31;;;;;;;8.60;7.75;;;18.50;99.90;;;;;;5097654;28;20200;-76
2023/06/26 04:22:00;;;;;;;10.95;7.65;;;18.50;99.90;;;;;;5105410;28;20238;-76
2023/06/26 04:24:28;;;;;;;8.23;7.28;;;18.50;99.90;;;;;;5089710;28;20301;-75
2023/06/26 04:26:56;;;;;;;8.00;7.20;;;18.50;99.90;;;;;;5103841;28;20313;-76
2023/06/26 04:29:25;;;;;;;8.32;7.53;;;18.50;99.90;;;;;;5104745;28;20223;-75
2023/06/26 04:31:57;;;;;;;11.73;7.57;;;18.60;99.90;;;;;;5093421;28;20220;-76
2023/06/26 04:34:27;;;;;;;13.63;7.50;;;18.60;99.90;;;;;;5106086;28;20665;-76
2023/06/26 04:36:55;;;;;;;8.85;7.13;;;18.60;99.90;;;;;;5095863;28;20219;-76
2023/06/26 04:39:23;;;;;;;10.60;7.35;;;18.60;99.90;;;;;;5098174;28;20188;-76
2023/06/26 04:41:58;;;;;;;8.45;6.70;;;18.60;99.90;;;;;;5100400;28;20245;-72
2023/06/26 04:44:26;;;;;;;12.48;6.63;;;18.70;99.90;;;;;;5109559;28;20200;-71
2023/06/26 04:46:54;;;;;;;8.40;6.43;;;18.80;99.90;;;;;;5099568;28;20219;-71
2023/06/26 04:49:22;;;;;;;6.78;6.18;;;18.90;99.90;;;;;;5101786;28;20216;-71
2023/06/26 04:51:51;;;;;;;8.13;6.78;;;19.10;99.90;;;;;;5107601;28;20229;-71
2023/06/26 04:54:19;;;;;;;8.52;7.30;;;19.30;99.90;;;;;;5094148;28;20192;-71
2023/06/26 04:56:47;;;;;;;8.98;6.75;;;19.40;99.90;;;;;;5097107;28;20687;-71
2023/06/26 04:59:15;;;;;;;8.18;7.35;;;19.60;99.90;;;;;;5102250;28;20200;-71
2023/06/26 05:01:44;;;;;;;9.05;7.28;;;19.70;99.90;;;;;;5106026;28;20644;-71
2023/06/26 05:04:12;;;;;;;8.45;7.20;;;19.90;99.90;;;;;;5095584;28;20615;-71
2023/06/26 05:06:42;;;;;;;8.40;7.32;;;20.00;99.90;;;;;;5107403;28;20596;-71
2023/06/26 05:09:11;;;;;;;10.88;7.10;;;20.10;99.90;;;;;;5108228;27;20201;-71
2023/06/26 05:11:39;;;;;;;7.88;7.18;;;20.10;99.90;;;;;;5101498;27;20208;-72
2023/06/26 05:14:08;;;;;;;8.45;6.75;;;20.20;99.90;;;;;;5095787;28;20598;-71
2023/06/26 05:16:36;;;;;;;10.70;7.30;;;20.20;99.90;;;;;;5110347;28;20224;-71
2023/06/26 05:19:04;;;;;;;11.15;7.90;;;20.30;99.90;;;;;;5104287;28;20748;-71
2023/06/26 05:21:33;;;;;;;7.90;7.20;;;20.40;99.90;;;;;;5103110;28;20637;-71
2023/06/26 05:24:01;;;;;;;8.95;8.07;;;20.50;99.90;;;;;;5109098;28;20283;-71
2023/06/26 05:26:31;;;;;;;8.13;7.43;;;20.60;99.90;;;;;;5094597;28;20259;-71
2023/06/26 05:28:59;;;;;;;10.98;7.50;;;20.70;99.90;;;;;;5103360;28;20258;-71
2023/06/26 05:31:28;;;;;;;10.30;8.77;;;20.70;99.90;;;;;;5103676;28;20191;-71
2023/06/26 05:33:56;;;;;;;9.48;8.43;;;20.80;99.90;;;;;;5111523;28;20233;-72
2023/06/26 05:36:24;;;;;;;8.68;7.78;;;20.80;99.90;;;;;;5097397;28;20700;-72
2023/06/26 05:38:53;;;;;;;7.80;6.97;;;20.70;99.90;;;;;;5109686;28;20995;-71
2023/06/26 05:41:21;;;;;;;9.13;7.22;;;20.80;99.90;;;;;;5107262;28;20210;-71
2023/06/26 05:43:50;;;;;;;8.35;7.53;;;20.80;99.90;;;;;;5104242;28;20188;-71
2023/06/26 05:46:18;;;;;;;7.53;6.70;;;20.90;99.90;;;;;;5113014;28;20638;-73
2023/06/26 05:48:47;;;;;;;10.93;7.30;;;21.00;99.90;;;;;;5099585;28;20184;-71
2023/06/26 05:51:15;;;;;;;9.02;7.55;;;21.10;99.90;;;;;;5103143;28;20212;-69
2023/06/26 05:53:44;;;;;;;8.73;7.35;;;21.20;99.90;;;;;;5107457;28;20215;-72
2023/06/26 05:56:12;;;;;;;8.23;7.20;;;21.20;99.90;;;;;;5109014;28;20262;-71
2023/06/26 05:58:41;;;;;;;8.57;7.72;;;21.30;99.90;;;;;;5096710;28;20704;-72
2023/06/26 06:01:10;;;;;;;10.73;7.38;;;21.30;99.90;;;;;;5102768;28;20196;-72
2023/06/26 06:03:38;;;;;;;11.93;6.88;;;21.30;99.90;;;;;;5104538;28;20252;-72
2023/06/26 06:06:05;;;;;;;11.48;7.45;;;21.40;99.90;;;;;;5105772;22;20317;-59
2023/06/26 06:08:33;;;;;;;8.10;7.15;;;21.50;99.90;;;;;;5105744;28;20226;-58
2023/06/26 06:11:01;;;;;;;11.10;6.55;;;21.50;99.90;;;;;;5104164;28;20295;-59
2023/06/26 06:13:29;;;;;;;7.88;7.18;;;21.50;99.90;;;;;;5105859;28;20223;-58
2023/06/26 06:15:57;;;;;;;8.82;7.15;;;21.60;99.90;;;;;;5098028;28;20650;-59
2023/06/26 06:18:26;;;;;;;8.38;7.53;;;21.70;99.90;;;;;;5102916;28;20240;-59
2023/06/26 06:20:54;;;;;;;8.52;7.35;;;21.80;99.90;;;;;;5102090;28;20204;-55
2023/06/26 06:23:23;;;;;;;9.07;7.13;;;21.90;99.90;;;;;;5100335;28;20243;-56
2023/06/26 06:25:51;;;;;;;9.38;8.00;;;21.90;99.90;;;;;;5105332;28;20294;-57
2023/06/26 06:28:18;;;;;;;10.63;7.22;;;22.00;99.90;;;;;;5095935;28;20228;-57
2023/06/26 06:30:47;;;;;;;11.32;8.15;;;22.00;99.90;;;;;;5111488;28;20659;-58
2023/06/26 06:33:15;;;;;;;8.88;7.90;;;22.00;99.90;;;;;;5106731;28;20700;-57
2023/06/26 06:35:45;;;;;;;9.68;8.10;;;22.10;99.90;;;;;;5099653;28;20287;-58
2023/06/26 06:38:12;;;;;;;10.35;7.45;;;22.10;99.90;;;;;;5093935;28;20623;-58
2023/06/26 06:40:40;;;;;;;9.95;7.82;;;22.20;99.90;;;;;;5098290;28;20241;-57
2023/06/26 06:43:08;;;;;;;8.65;7.30;;;22.20;99.90;;;;;;5104621;28;20212;-57
2023/06/26 06:45:37;;;;;;;10.70;7.88;;;22.30;99.90;;;;;;5106768;28;20226;-58
2023/06/26 06:48:05;;;;;;;9.85;7.78;;;22.30;99.90;;;;;;5097177;28;20192;-57
2023/06/26 06:50:33;;;;;;;10.95;7.85;;;22.40;99.90;;;;;;5109671;28;20257;-56
2023/06/26 06:53:02;;;;;;;8.65;7.85;;;22.40;99.90;;;;;;5101694;28;20223;-55
2023/06/26 06:55:30;;;;;;;9.82;8.65;;;22.50;99.90;;;;;;5112368;28;20606;-56
2023/06/26 06:57:58;;;;;;;9.93;8.15;;;22.60;99.90;;;;;;5097434;28;20231;-57
2023/06/26 07:00:26;;;;;;;11.32;8.52;;;22.70;99.90;;;;;;5109891;28;20745;-57
2023/06/26 07:02:56;;;;;;;9.85;7.53;;;22.70;99.90;;;;;;5100547;28;20211;-59
2023/06/26 07:05:24;;;;;;;9.18;8.20;;;22.80;99.90;;;;;;5101800;28;20574;-58
2023/06/26 07:07:52;;;;;;;11.85;8.00;;;22.80;99.90;;;;;;5108472;28;20246;-59
2023/06/26 07:10:21;;;;;;;9.45;8.38;;;22.90;99.90;;;;;;5096558;28;20276;-58
2023/06/26 07:12:49;;;;;;;13.90;8.93;;;23.00;99.90;;;;;;5113764;22;20229;-62
2023/06/26 07:15:17;;;;;;;11.18;8.93;;;23.10;99.90;;;;;;5082804;28;20674;-63
2023/06/26 07:17:45;;;;;;;10.05;8.63;;;23.10;99.90;;;;;;5079135;28;20201;-63
2023/06/26 07:20:15;;;;;;;11.95;8.55;;;23.20;99.90;;;;;;5091521;28;20200;-64
2023/06/26 07:22:44;;;;;;;8.98;7.95;;;23.30;99.90;;;;;;5073597;28;20220;-62
2023/06/26 07:25:12;;;;;;;9.93;8.20;;;23.30;99.90;;;;;;5073321;28;20814;-64
2023/06/26 07:27:42;;;;;;;10.18;8.30;;;23.40;99.90;;;;;;5074155;28;20228;-62
2023/06/26 07:30:11;;;;;;;9.15;8.25;;;23.50;99.90;;;;;;5074197;28;20228;-65
2023/06/26 07:32:40;;;;;;;13.82;7.45;;;23.60;99.90;;;;;;5073234;28;20711;-63
2023/06/26 07:35:08;;;;;;;12.57;8.32;;;23.70;99.90;;;;;;5071934;28;20663;-63
2023/06/26 07:37:36;;;;;;;13.98;8.27;;;23.80;99.90;;;;;;5074267;28;20270;-62
2023/06/26 07:40:05;;;;;;;13.57;7.43;;;23.90;99.90;;;;;;5071922;28;20271;-62
2023/06/26 07:42:33;;;;;;;7.93;7.13;;;24.00;99.90;;;;;;5072344;28;20223;-63
2023/06/26 07:45:05;;;;;;;11.77;7.25;;;24.10;99.90;;;;;;5072030;28;20235;-64
2023/06/26 07:47:32;;;;;;;8.15;6.95;;;24.20;99.90;;;;;;5072256;28;20231;-63
2023/06/26 07:50:01;;;;;;;8.05;7.00;;;24.30;99.90;;;;;;5073594;28;20201;-64
2023/06/26 07:52:30;;;;;;;11.50;7.50;;;24.40;99.90;;;;;;5039770;28;20640;-62
2023/06/26 07:54:57;;;;;;;8.35;7.03;;;24.50;99.90;;;;;;5070784;28;20252;-64
2023/06/26 07:57:25;;;;;;;8.88;7.57;;;24.50;99.90;;;;;;5072074;28;20213;-63
2023/06/26 07:59:53;;;;;;;9.82;7.63;;;24.50;99.90;;;;;;5072086;28;20254;-63
2023/06/26 08:02:22;;;;;;;8.00;7.20;;;24.60;99.90;;;;;;5073789;28;20228;-65
2023/06/26 08:04:51;;;;;;;10.55;6.53;;;24.70;99.90;;;;;;5073773;28;20196;-62
2023/06/26 08:07:19;;;;;;;7.28;6.63;;;24.90;99.90;;;;;;5072821;28;20201;-64
2023/06/26 08:09:47;;;;;;;7.47;6.80;;;25.10;99.90;;;;;;5073170;28;20240;-64
2023/06/26 08:12:15;;;;;;;7.43;6.72;;;25.30;99.90;;;;;;5072215;28;20253;-64
2023/06/26 08:14:43;;;;;;;8.40;6.72;;;25.60;99.90;;;;;;5072549;28;20265;-64
2023/06/26 08:17:11;;;;;;;6.85;6.35;;;25.70;99.90;;;;;;5071773;28;20224;-62
2023/06/26 08:19:40;;;;;;;7.45;6.85;;;25.70;99.90;;;;;;5072866;28;20196;-64
2023/06/26 08:22:08;;;;;;;9.05;6.82;;;25.70;99.90;;;;;;5072761;28;20467;-65
2023/06/26 08:24:36;;;;;;;7.25;6.38;;;25.60;99.90;;;;;;5071596;28;20189;-67
2023/06/26 08:27:07;;;;;;;6.63;6.15;;;25.50;99.90;;;;;;5071653;28;20637;-62
2023/06/26 08:29:35;;;;;;;8.45;6.55;;;25.50;99.90;;;;;;5071638;28;20208;-62
2023/06/26 08:32:03;;;;;;;8.38;6.78;;;25.60;99.90;;;;;;5073214;28;20238;-61
2023/06/26 08:34:31;;;;;;;6.97;6.35;;;25.80;99.90;;;;;;5073524;28;20217;-63
2023/06/26 08:37:00;;;;;;;7.68;6.15;;;26.00;99.90;;;;;;5071546;28;20635;-63
2023/06/26 08:39:28;;;;;;;6.78;5.97;;;26.20;99.90;;;;;;5073343;28;20261;-63
2023/06/26 08:41:56;;;;;;;6.75;6.18;;;26.40;99.90;;;;;;5075071;28;20200;-64
2023/06/26 08:44:24;;;;;;;7.55;6.53;;;26.50;99.90;;;;;;5077697;28;20774;-63
2023/06/26 08:46:52;;;;;;;7.32;6.05;;;26.70;99.90;;;;;;5078279;28;20197;-65
2023/06/26 08:49:22;;;;;;;6.90;6.30;;;26.80;99.90;;;;;;5081069;28;20711;-65
2023/06/26 08:51:52;;;;;;;6.43;5.82;;;27.00;99.90;;;;;;5079568;28;20197;-64
2023/06/26 08:54:24;;;;;;;11.85;5.70;;;27.10;99.90;;;;;;5076605;28;20300;-63
2023/06/26 08:56:51;;;;;;;6.95;6.35;;;27.30;99.90;;;;;;5077625;28;20231;-62
2023/06/26 08:59:19;;;;;;;7.05;5.95;;;27.40;99.90;;;;;;5079928;28;20258;-64
2023/06/26 09:01:47;;;;;;;5.82;5.30;;;27.50;99.90;;;;;;5079789;28;20860;-65
2023/06/26 09:04:15;;;;;;;6.35;5.32;;;27.40;99.90;;;;;;5080921;28;20655;-65
2023/06/26 09:06:44;;;;;;;6.13;5.53;;;27.50;99.90;;;;;;5078260;28;20280;-63
2023/06/26 09:09:12;;;;;;;6.25;5.60;;;27.60;99.90;;;;;;5077956;28;20280;-63
2023/06/26 09:11:41;;;;;;;8.00;5.40;;;27.70;99.90;;;;;;5077505;28;20741;-62
2023/06/26 09:14:10;;;;;;;7.30;6.15;;;27.90;99.90;;;;;;5079339;28;20277;-65
2023/06/26 09:16:42;;;;;;;6.22;5.70;;;28.10;99.90;;;;;;5079224;28;20284;-65
2023/06/26 09:19:11;;;;;;;6.55;5.95;;;28.20;99.90;;;;;;5080951;28;20192;-62
2023/06/26 09:21:40;;;;;;;6.22;5.63;;;28.30;99.90;;;;;;5079195;28;20548;-63
2023/06/26 09:24:08;;;;;;;6.38;5.78;;;28.50;99.90;;;;;;5077615;28;20257;-64
2023/06/26 09:26:36;;;;;;;8.48;5.57;;;28.50;99.90;;;;;;5080751;28;20252;-63
2023/06/26 09:29:06;;;;;;;7.13;5.90;;;28.60;99.90;;;;;;5077813;28;20208;-64
2023/06/26 09:31:34;;;;;;;5.35;5.03;;;28.80;99.90;;;;;;5077690;28;20204;-63
2023/06/26 09:34:08;;;;;;;7.97;5.95;;;28.80;99.90;;;;;;5080592;28;20243;-65
2023/06/26 09:36:36;;;;;;;7.05;5.50;;;28.90;99.90;;;;;;5081810;28;20205;-65
2023/06/26 09:39:10;;;;;;;6.25;5.72;;;29.10;99.90;;;;;;5081557;28;20193;-65
2023/06/26 09:41:41;;;;;;;6.78;5.97;;;29.30;99.90;;;;;;5078666;28;20747;-62
2023/06/26 09:44:11;;;;;;;6.53;5.70;;;29.50;99.90;;;;;;5077532;28;20220;-62
2023/06/26 09:46:39;;;;;;;5.93;5.40;;;29.50;99.90;;;;;;5077655;28;20692;-63
2023/06/26 09:49:08;;;;;;;5.53;5.10;;;29.40;99.90;;;;;;5077304;28;20197;-65
2023/06/26 09:51:36;;;;;;;6.20;5.70;;;29.40;99.90;;;;;;5079651;28;20287;-65
2023/06/26 09:54:05;;;;;;;6.55;5.95;;;29.30;99.90;;;;;;5075439;28;20645;-65
2023/06/26 09:56:33;;;;;;;7.20;5.93;;;29.20;99.90;;;;;;5074008;28;20249;-63
2023/06/26 09:59:02;;;;;;;12.05;5.88;;;29.30;99.90;;;;;;5074160;28;20204;-64
2023/06/26 10:01:31;;;;;;;5.75;5.35;;;29.40;99.90;;;;;;5074418;28;20224;-65
2023/06/26 10:04:00;;;;;;;6.25;5.72;;;29.50;99.90;;;;;;5076961;28;20243;-64
2023/06/26 10:06:36;;;;;;;5.50;5.10;;;29.60;99.90;;;;;;5042774;28;20266;-63
2023/06/26 10:09:04;;;;;;;6.00;5.50;;;29.80;99.90;;;;;;5074685;28;20246;-64
2023/06/26 10:11:35;;;;;;;5.97;5.57;;;29.70;99.90;;;;;;5074099;28;20204;-63
2023/06/26 10:14:04;;;;;;;8.52;6.00;;;29.80;99.90;;;;;;5073591;28;20231;-65
2023/06/26 10:16:46;;;;;;;6.10;5.70;;;29.90;99.90;;;;;;5073746;28;20216;-64
2023/06/26 10:19:14;;;;;;;7.90;6.15;;;30.00;99.90;;;;;;5073976;28;20201;-63
2023/06/26 10:21:42;;;;;;;6.80;5.72;;;29.80;99.90;;;;;;5073885;28;20201;-63
2023/06/26 10:24:10;;;;;;;12.25;5.63;;;29.60;99.90;;;;;;5073667;28;20228;-64
2023/06/26 10:26:41;;;;;;;8.05;5.70;;;29.50;99.90;;;;;;5074210;28;20192;-63
2023/06/26 10:29:09;;;;;;;5.93;5.53;;;29.80;99.90;;;;;;5074966;28;20208;-65
2023/06/26 10:31:37;;;;;;;8.05;5.38;;;30.00;99.90;;;;;;5076016;28;20201;-65
2023/06/26 10:34:07;;;;;;;9.23;6.07;;;30.40;99.90;;;;;;5073361;28;20228;-63
2023/06/26 10:36:35;;;;;;;6.93;5.68;;;30.50;99.90;;;;;;5073952;28;20220;-65
2023/06/26 10:39:05;;;;;;;5.95;5.45;;;30.30;99.90;;;;;;5073404;28;20243;-67
2023/06/26 10:41:37;;;;;;;7.32;5.57;;;30.50;99.90;;;;;;5073433;28;20723;-64
2023/06/26 10:44:11;;;;;;;8.80;5.55;;;30.60;99.90;;;;;;5073378;28;20220;-64
2023/06/26 10:46:52;;;;;;;6.40;5.80;;;30.90;99.90;;;;;;5073204;28;20197;-64
2023/06/26 10:49:22;;;;;;;8.07;6.00;;;31.20;99.90;;;;;;5073902;28;20197;-65
2023/06/26 10:51:50;;;;;;;7.40;5.68;;;31.50;99.90;;;;;;5073410;28;20300;-65
2023/06/26 10:54:19;;;;;;;6.68;5.60;;;31.60;99.90;;;;;;5071933;28;20724;-63
2023/06/26 10:56:48;;;;;;;6.03;5.53;;;31.70;99.60;;;;;;5072839;28;20314;-64
2023/06/26 10:59:17;;;;;;;8.73;5.65;;;31.80;99.20;;;;;;5073244;28;20197;-64
2023/06/26 11:01:45;;;;;;;5.80;5.40;;;31.90;99.90;;;;;;5073003;28;20243;-65
2023/06/26 11:04:16;;;;;;;5.70;5.30;;;32.00;98.40;;;;;;5072215;28;20275;-63
2023/06/26 11:06:48;;;;;;;6.45;5.75;;;32.20;97.90;;;;;;5072953;28;20197;-63
2023/06/26 11:09:19;;;;;;;5.60;5.20;;;32.30;97.30;;;;;;5073087;28;20201;-63
2023/06/26 11:11:58;;;;;;;5.70;5.20;;;32.50;96.90;;;;;;5072830;28;20902;-65
2023/06/26 11:14:27;;;;;;;8.32;5.55;;;32.70;97.60;;;;;;5072445;28;20734;-63
2023/06/26 11:16:56;;;;;;;5.85;5.38;;;32.80;96.90;;;;;;5073236;28;20270;-66
2023/06/26 11:19:26;;;;;;;6.60;5.35;;;32.80;95.90;;;;;;5073127;28;20200;-66
2023/06/26 11:22:02;;;;;;;5.53;4.97;;;32.90;95.70;;;;;;5072889;28;20228;-65
2023/06/26 11:24:31;;;;;;;5.50;5.00;;;33.10;94.90;;;;;;5040295;28;20200;-65
2023/06/26 11:27:03;;;;;;;8.10;5.57;;;33.20;94.20;;;;;;5072468;28;20201;-65
2023/06/26 11:29:33;;;;;;;4.90;4.60;;;32.70;93.50;;;;;;5072907;28;20229;-65
2023/06/26 11:32:02;;;;;;;9.27;4.97;;;32.20;93.80;;;;;;5072596;28;20196;-65
2023/06/26 11:34:32;;;;;;;5.22;4.50;;;31.80;94.10;;;;;;5041395;28;20216;-64
2023/06/26 11:37:02;;;;;;;7.05;5.53;;;31.50;94.20;;;;;;5072982;28;20259;-63
2023/06/26 11:39:30;;;;;;;7.38;6.20;;;31.50;95.30;;;;;;5072170;28;20278;-64
2023/06/26 11:41:59;;;;;;;6.35;5.35;;;31.90;95.20;;;;;;5072321;28;20288;-64
2023/06/26 11:44:30;;;;;;;6.93;5.32;;;32.30;94.70;;;;;;5072257;28;20256;-64
2023/06/26 11:46:58;;;;;;;7.25;5.57;;;32.20;93.80;;;;;;5072055;28;20920;-63
2023/06/26 11:49:26;;;;;;;6.07;5.68;;;31.90;94.20;;;;;;5072401;28;20269;-63
2023/06/26 11:51:57;;;;;;;8.73;6.05;;;31.60;94.10;;;;;;5072138;28;20208;-63
2023/06/26 11:54:29;;;;;;;7.28;6.30;;;31.90;93.40;;;;;;5070995;28;20327;-64
2023/06/26 11:56:58;;;;;;;7.03;6.30;;;32.40;93.10;;;;;;5071922;28;20302;-64
2023/06/26 11:59:33;;;;;;;7.05;6.45;;;32.60;93.00;;;;;;5072449;28;20667;-66
2023/06/26 12:02:01;;;;;;;12.07;6.53;;;32.80;92.50;;;;;;5072033;28;20242;-63
2023/06/26 12:04:30;;;;;;;7.93;7.22;;;33.00;91.50;;;;;;5039515;28;20216;-65
2023/06/26 12:06:58;;;;;;;9.07;8.15;;;33.20;89.60;;;;;;5071780;28;20543;-63
2023/06/26 12:09:26;;;;;;;12.77;8.52;;;33.30;90.10;;;;;;5071986;28;20211;-63
2023/06/26 12:11:56;;;;;;;8.45;7.68;;;33.50;89.60;;;;;;5071002;28;20204;-64
2023/06/26 12:14:25;;;;;;;15.18;8.00;;;33.60;89.40;;;;;;5071544;28;20656;-64
2023/06/26 12:16:53;;;;;;;9.05;8.23;;;33.70;89.80;;;;;;5070662;28;20221;-64
2023/06/26 12:19:25;;;;;;;9.40;7.80;;;34.00;87.60;;;;;;5071811;28;20188;-64
2023/06/26 12:21:53;;;;;;;10.68;7.95;;;34.30;86.40;;;;;;5071656;28;20230;-64
2023/06/26 12:24:22;;;;;;;11.57;8.77;;;34.60;85.70;;;;;;5071711;28;20251;-65
2023/06/26 12:26:53;;;;;;;9.40;8.05;;;34.80;83.90;;;;;;5071407;28;20192;-64
2023/06/26 12:29:22;;;;;;;8.57;7.78;;;34.80;82.00;;;;;;5072158;28;20201;-66
2023/06/26 12:31:52;;;;;;;9.68;7.88;;;34.90;81.90;;;;;;5071964;28;20240;-65
2023/06/26 12:34:22;;;;;;;12.00;8.60;;;35.00;79.90;;;;;;5071982;28;20227;-64
2023/06/26 12:36:51;;;;;;;8.13;7.03;;;35.00;76.80;;;;;;5071761;28;20277;-65
2023/06/26 12:39:20;;;;;;;7.25;6.35;;;34.60;75.50;;;;;;5071762;28;20197;-65
2023/06/26 12:41:49;;;;;;;5.80;5.30;;;34.40;73.90;;;;;;5071863;28;20216;-65
2023/06/26 12:44:26;;;;;;;8.38;5.10;;;34.30;71.20;;;;;;5071211;28;20256;-65
2023/06/26 12:46:55;;;;;;;5.88;5.25;;;34.10;69.20;;;;;;5071512;28;20734;-65
2023/06/26 12:49:32;;;;;;;6.50;4.43;;;34.20;67.90;;;;;;5071943;28;20281;-65
2023/06/26 12:52:00;;;;;;;5.22;4.82;;;34.30;68.80;;;;;;5071458;28;20666;-65
2023/06/26 12:54:28;;;;;;;6.93;5.15;;;34.30;68.40;;;;;;5039445;28;20220;-65